This is the latest recevied weather packets stored in our database for station/object N0TKN. If no packets are shown the sender has not sent any weather packets the latest 10 day(s).
| Time | Temp. | Humidity | Pressure | Rain* | Wind** | Luminosity | Snow |
|---|---|---|---|---|---|---|---|
| 1777857317 | 23.33° C | 47% | 1008 hPa | 0 mm | - | 1 W/m² | - |
| 1777856717 | 23.89° C | 46% | 1007.9 hPa | 0 mm | - | 3 W/m² | - |
| 1777856117 | 23.89° C | 45% | 1008 hPa | 0 mm | - | 7 W/m² | - |
| 1777855517 | 24.44° C | 45% | 1008 hPa | 0 mm | - | 17 W/m² | - |
| 1777854918 | 24.44° C | 45% | 1008.2 hPa | 0 mm | - | 27 W/m² | - |
| 1777854318 | 25° C | 43% | 1008.3 hPa | 0 mm | - | 34 W/m² | - |
| 1777853718 | 25.56° C | 42% | 1008.2 hPa | 0 mm | - | 47 W/m² | - |
| 1777853118 | 25.56° C | 40% | 1008.2 hPa | 0 mm | - | 71 W/m² | - |
| 1777852516 | 25.56° C | 40% | 1008.3 hPa | 0 mm | - | 87 W/m² | - |
| 1777851916 | 25.56° C | 39% | 1008.3 hPa | 0 mm | - | 88 W/m² | - |
| 1777851316 | 26.11° C | 38% | 1008.2 hPa | 0 mm | - | 105 W/m² | - |
| 1777850716 | 26.11° C | 37% | 1008.1 hPa | 0 mm | - | 137 W/m² | - |
| 1777850117 | 26.67° C | 36% | 1008.1 hPa | 0 mm | - | 123 W/m² | - |
| 1777849516 | 27.22° C | 35% | 1008.2 hPa | 0 mm | - | 109 W/m² | - |
| 1777848917 | 27.22° C | 34% | 1007.9 hPa | 0 mm | - | 283 W/m² | - |
| 1777848317 | 27.78° C | 33% | 1008 hPa | 0 mm | - | 249 W/m² | - |
| 1777847717 | 27.22° C | 33% | 1007.9 hPa | 0 mm | - | 345 W/m² | - |
| 1777847117 | 27.22° C | 33% | 1007.9 hPa | 0 mm | - | 380 W/m² | - |
| 1777846517 | 27.78° C | 35% | 1007.8 hPa | 0 mm | - | 408 W/m² | - |
| 1777845917 | 27.78° C | 34% | 1007.8 hPa | 0 mm | - | 438 W/m² | - |
| 1777845318 | 27.22° C | 34% | 1007.9 hPa | 0 mm | - | 470 W/m² | - |
| 1777844717 | 27.22° C | 34% | 1007.9 hPa | 0 mm | - | 506 W/m² | - |
| 1777844118 | 27.78° C | 33% | 1007.9 hPa | 0 mm | - | 535 W/m² | - |
| 1777843518 | 27.22° C | 35% | 1008.1 hPa | 0 mm | - | 567 W/m² | - |
| 1777842918 | 27.22° C | 36% | 1008 hPa | 0 mm | - | 594 W/m² | - |
* Rain latest hour (hover to see other rain measurements)
** Current wind speed in m/s (hover to see current wind gust speed)